sensor_id;sensor_type;location;lat;lon;timestamp;P1;durP1;ratioP1;P2;durP2;ratioP2
67092;SDS011;54011;50.772;7.730;2022-10-13T00:01:20;12.57;;;7.88;;
67092;SDS011;54011;50.772;7.730;2022-10-13T00:03:46;12.73;;;7.57;;
67092;SDS011;54011;50.772;7.730;2022-10-13T00:06:18;14.10;;;7.40;;
67092;SDS011;54011;50.772;7.730;2022-10-13T00:08:45;11.82;;;7.50;;
67092;SDS011;54011;50.772;7.730;2022-10-13T00:11:19;11.80;;;6.75;;
67092;SDS011;54011;50.772;7.730;2022-10-13T00:13:46;17.42;;;7.40;;
67092;SDS011;54011;50.772;7.730;2022-10-13T00:16:18;11.60;;;6.82;;
67092;SDS011;54011;50.772;7.730;2022-10-13T00:18:45;13.50;;;7.72;;
67092;SDS011;54011;50.772;7.730;2022-10-13T00:21:12;13.02;;;6.85;;
67092;SDS011;54011;50.772;7.730;2022-10-13T00:23:39;13.95;;;7.72;;
67092;SDS011;54011;50.772;7.730;2022-10-13T00:26:07;13.40;;;7.43;;
67092;SDS011;54011;50.772;7.730;2022-10-13T00:28:35;17.98;;;8.80;;
67092;SDS011;54011;50.772;7.730;2022-10-13T00:31:01;17.52;;;8.65;;
67092;SDS011;54011;50.772;7.730;2022-10-13T00:33:27;14.60;;;8.55;;
67092;SDS011;54011;50.772;7.730;2022-10-13T00:35:52;16.23;;;8.15;;
67092;SDS011;54011;50.772;7.730;2022-10-13T00:38:19;15.18;;;8.73;;
67092;SDS011;54011;50.772;7.730;2022-10-13T00:40:53;16.88;;;10.15;;
67092;SDS011;54011;50.772;7.730;2022-10-13T00:43:24;22.58;;;11.02;;
67092;SDS011;54011;50.772;7.730;2022-10-13T00:46:08;18.30;;;9.50;;
67092;SDS011;54011;50.772;7.730;2022-10-13T00:48:34;16.33;;;9.45;;
67092;SDS011;54011;50.772;7.730;2022-10-13T00:50:59;17.95;;;9.13;;
67092;SDS011;54011;50.772;7.730;2022-10-13T00:53:26;20.45;;;10.45;;
67092;SDS011;54011;50.772;7.730;2022-10-13T00:55:55;16.88;;;10.07;;
67092;SDS011;54011;50.772;7.730;2022-10-13T00:58:22;20.77;;;9.85;;
67092;SDS011;54011;50.772;7.730;2022-10-13T01:00:50;20.23;;;10.50;;
67092;SDS011;54011;50.772;7.730;2022-10-13T01:03:17;21.95;;;10.73;;
67092;SDS011;54011;50.772;7.730;2022-10-13T01:05:43;17.92;;;8.95;;
67092;SDS011;54011;50.772;7.730;2022-10-13T01:08:10;21.98;;;9.20;;
67092;SDS011;54011;50.772;7.730;2022-10-13T01:28:54;18.90;;;9.32;;
67092;SDS011;54011;50.772;7.730;2022-10-13T01:36:56;18.15;;;9.85;;
67092;SDS011;54011;50.772;7.730;2022-10-13T01:39:42;19.60;;;10.27;;
67092;SDS011;54011;50.772;7.730;2022-10-13T01:42:18;14.80;;;9.60;;
67092;SDS011;54011;50.772;7.730;2022-10-13T01:45:02;16.80;;;10.38;;
67092;SDS011;54011;50.772;7.730;2022-10-13T01:47:29;17.83;;;9.85;;
67092;SDS011;54011;50.772;7.730;2022-10-13T01:49:56;17.20;;;9.98;;
67092;SDS011;54011;50.772;7.730;2022-10-13T01:52:25;16.98;;;9.80;;
67092;SDS011;54011;50.772;7.730;2022-10-13T01:55:03;17.77;;;9.95;;
67092;SDS011;54011;50.772;7.730;2022-10-13T01:57:37;21.10;;;10.88;;
67092;SDS011;54011;50.772;7.730;2022-10-13T02:00:07;21.42;;;9.85;;
67092;SDS011;54011;50.772;7.730;2022-10-13T02:03:00;22.23;;;10.82;;
67092;SDS011;54011;50.772;7.730;2022-10-13T02:05:54;17.50;;;10.38;;
67092;SDS011;54011;50.772;7.730;2022-10-13T02:08:51;15.52;;;9.55;;
67092;SDS011;54011;50.772;7.730;2022-10-13T02:11:32;30.48;;;10.65;;
67092;SDS011;54011;50.772;7.730;2022-10-13T02:16:30;17.80;;;10.20;;
67092;SDS011;54011;50.772;7.730;2022-10-13T02:19:03;24.98;;;10.20;;
67092;SDS011;54011;50.772;7.730;2022-10-13T02:21:31;27.42;;;10.40;;
67092;SDS011;54011;50.772;7.730;2022-10-13T02:24:00;19.33;;;9.30;;
67092;SDS011;54011;50.772;7.730;2022-10-13T02:26:27;29.13;;;10.55;;
67092;SDS011;54011;50.772;7.730;2022-10-13T02:29:14;16.75;;;9.60;;
67092;SDS011;54011;50.772;7.730;2022-10-13T02:31:41;15.40;;;9.52;;
67092;SDS011;54011;50.772;7.730;2022-10-13T02:34:08;19.08;;;9.60;;
67092;SDS011;54011;50.772;7.730;2022-10-13T02:36:33;14.80;;;9.32;;
67092;SDS011;54011;50.772;7.730;2022-10-13T02:38:59;16.20;;;8.85;;
67092;SDS011;54011;50.772;7.730;2022-10-13T02:41:24;15.98;;;9.55;;
67092;SDS011;54011;50.772;7.730;2022-10-13T02:43:50;16.60;;;8.98;;
67092;SDS011;54011;50.772;7.730;2022-10-13T02:46:15;17.23;;;9.38;;
67092;SDS011;54011;50.772;7.730;2022-10-13T02:48:42;14.65;;;9.25;;
67092;SDS011;54011;50.772;7.730;2022-10-13T02:51:08;17.73;;;10.18;;
67092;SDS011;54011;50.772;7.730;2022-10-13T02:53:33;19.27;;;10.23;;
67092;SDS011;54011;50.772;7.730;2022-10-13T02:55:59;21.23;;;10.73;;
67092;SDS011;54011;50.772;7.730;2022-10-13T02:58:26;19.10;;;11.38;;
67092;SDS011;54011;50.772;7.730;2022-10-13T03:00:51;17.30;;;9.73;;
67092;SDS011;54011;50.772;7.730;2022-10-13T03:03:17;17.63;;;9.63;;
67092;SDS011;54011;50.772;7.730;2022-10-13T03:05:43;18.08;;;10.27;;
67092;SDS011;54011;50.772;7.730;2022-10-13T03:08:09;20.13;;;10.30;;
67092;SDS011;54011;50.772;7.730;2022-10-13T03:10:35;18.50;;;10.65;;
67092;SDS011;54011;50.772;7.730;2022-10-13T03:13:01;25.05;;;11.48;;
67092;SDS011;54011;50.772;7.730;2022-10-13T03:15:27;23.65;;;11.30;;
67092;SDS011;54011;50.772;7.730;2022-10-13T03:17:54;22.08;;;11.18;;
67092;SDS011;54011;50.772;7.730;2022-10-13T03:20:19;27.80;;;10.95;;
67092;SDS011;54011;50.772;7.730;2022-10-13T03:22:45;32.40;;;11.23;;
67092;SDS011;54011;50.772;7.730;2022-10-13T03:25:10;26.60;;;11.35;;
67092;SDS011;54011;50.772;7.730;2022-10-13T03:27:39;17.17;;;10.00;;
67092;SDS011;54011;50.772;7.730;2022-10-13T03:30:04;17.58;;;10.43;;
67092;SDS011;54011;50.772;7.730;2022-10-13T03:32:32;17.98;;;9.73;;
67092;SDS011;54011;50.772;7.730;2022-10-13T03:34:58;18.20;;;10.10;;
67092;SDS011;54011;50.772;7.730;2022-10-13T03:37:24;16.90;;;9.80;;
67092;SDS011;54011;50.772;7.730;2022-10-13T03:39:49;20.60;;;10.93;;
67092;SDS011;54011;50.772;7.730;2022-10-13T03:42:18;17.15;;;10.15;;
67092;SDS011;54011;50.772;7.730;2022-10-13T03:44:46;19.27;;;9.00;;
67092;SDS011;54011;50.772;7.730;2022-10-13T03:47:12;19.40;;;10.55;;
67092;SDS011;54011;50.772;7.730;2022-10-13T03:49:37;18.58;;;10.13;;
67092;SDS011;54011;50.772;7.730;2022-10-13T03:52:03;16.30;;;10.27;;
67092;SDS011;54011;50.772;7.730;2022-10-13T03:54:29;16.50;;;10.05;;
67092;SDS011;54011;50.772;7.730;2022-10-13T03:56:55;17.15;;;9.98;;
67092;SDS011;54011;50.772;7.730;2022-10-13T03:59:21;17.02;;;10.00;;
67092;SDS011;54011;50.772;7.730;2022-10-13T04:01:46;18.15;;;9.88;;
67092;SDS011;54011;50.772;7.730;2022-10-13T04:04:13;16.45;;;9.85;;
67092;SDS011;54011;50.772;7.730;2022-10-13T04:06:40;15.93;;;9.50;;
67092;SDS011;54011;50.772;7.730;2022-10-13T04:09:06;17.05;;;10.10;;
67092;SDS011;54011;50.772;7.730;2022-10-13T04:11:32;17.13;;;9.90;;
67092;SDS011;54011;50.772;7.730;2022-10-13T04:13:58;16.15;;;9.25;;
67092;SDS011;54011;50.772;7.730;2022-10-13T04:16:24;16.58;;;8.98;;
67092;SDS011;54011;50.772;7.730;2022-10-13T04:18:56;15.50;;;9.60;;
67092;SDS011;54011;50.772;7.730;2022-10-13T04:21:31;16.27;;;9.25;;
67092;SDS011;54011;50.772;7.730;2022-10-13T04:23:58;16.13;;;8.80;;
67092;SDS011;54011;50.772;7.730;2022-10-13T04:26:25;16.95;;;9.45;;
67092;SDS011;54011;50.772;7.730;2022-10-13T04:28:52;16.38;;;9.05;;
67092;SDS011;54011;50.772;7.730;2022-10-13T04:31:19;16.20;;;8.70;;
67092;SDS011;54011;50.772;7.730;2022-10-13T04:33:48;15.65;;;10.05;;
67092;SDS011;54011;50.772;7.730;2022-10-13T04:36:14;17.85;;;9.93;;
67092;SDS011;54011;50.772;7.730;2022-10-13T04:38:42;16.77;;;10.45;;
67092;SDS011;54011;50.772;7.730;2022-10-13T04:41:08;20.02;;;10.20;;
67092;SDS011;54011;50.772;7.730;2022-10-13T04:43:52;21.15;;;9.75;;
67092;SDS011;54011;50.772;7.730;2022-10-13T04:46:20;17.40;;;9.57;;
67092;SDS011;54011;50.772;7.730;2022-10-13T04:48:52;19.00;;;9.73;;
67092;SDS011;54011;50.772;7.730;2022-10-13T04:51:20;20.58;;;10.40;;
67092;SDS011;54011;50.772;7.730;2022-10-13T04:53:47;19.40;;;10.55;;
67092;SDS011;54011;50.772;7.730;2022-10-13T04:56:17;21.67;;;11.20;;
67092;SDS011;54011;50.772;7.730;2022-10-13T04:58:43;22.02;;;11.50;;
67092;SDS011;54011;50.772;7.730;2022-10-13T05:01:11;21.05;;;11.27;;
67092;SDS011;54011;50.772;7.730;2022-10-13T05:03:52;22.67;;;10.73;;
67092;SDS011;54011;50.772;7.730;2022-10-13T05:06:20;23.25;;;11.63;;
67092;SDS011;54011;50.772;7.730;2022-10-13T05:08:53;22.02;;;12.48;;
67092;SDS011;54011;50.772;7.730;2022-10-13T05:11:20;24.23;;;12.65;;
67092;SDS011;54011;50.772;7.730;2022-10-13T05:13:46;22.10;;;11.95;;
67092;SDS011;54011;50.772;7.730;2022-10-13T05:16:13;23.00;;;12.38;;
67092;SDS011;54011;50.772;7.730;2022-10-13T05:18:40;24.98;;;12.98;;
67092;SDS011;54011;50.772;7.730;2022-10-13T05:21:20;23.85;;;12.50;;
67092;SDS011;54011;50.772;7.730;2022-10-13T05:23:48;27.20;;;11.88;;
67092;SDS011;54011;50.772;7.730;2022-10-13T05:26:17;24.70;;;12.93;;
67092;SDS011;54011;50.772;7.730;2022-10-13T05:28:43;24.27;;;12.88;;
67092;SDS011;54011;50.772;7.730;2022-10-13T05:33:39;25.03;;;12.60;;
67092;SDS011;54011;50.772;7.730;2022-10-13T05:36:10;23.98;;;12.63;;
67092;SDS011;54011;50.772;7.730;2022-10-13T05:38:41;23.95;;;12.35;;
67092;SDS011;54011;50.772;7.730;2022-10-13T05:41:08;26.02;;;12.90;;
67092;SDS011;54011;50.772;7.730;2022-10-13T05:43:39;24.50;;;12.48;;
67092;SDS011;54011;50.772;7.730;2022-10-13T05:46:05;24.27;;;12.63;;
67092;SDS011;54011;50.772;7.730;2022-10-13T05:48:34;27.83;;;12.93;;
67092;SDS011;54011;50.772;7.730;2022-10-13T05:51:01;26.48;;;12.77;;
67092;SDS011;54011;50.772;7.730;2022-10-13T05:53:32;22.58;;;11.82;;
67092;SDS011;54011;50.772;7.730;2022-10-13T05:56:02;26.35;;;11.88;;
67092;SDS011;54011;50.772;7.730;2022-10-13T05:58:33;22.35;;;11.98;;
67092;SDS011;54011;50.772;7.730;2022-10-13T06:01:07;23.63;;;12.07;;
67092;SDS011;54011;50.772;7.730;2022-10-13T06:03:34;25.33;;;11.77;;
67092;SDS011;54011;50.772;7.730;2022-10-13T06:06:01;24.83;;;12.07;;
67092;SDS011;54011;50.772;7.730;2022-10-13T06:08:26;27.20;;;12.48;;
67092;SDS011;54011;50.772;7.730;2022-10-13T06:10:53;23.75;;;11.95;;
67092;SDS011;54011;50.772;7.730;2022-10-13T06:13:21;21.73;;;11.35;;
67092;SDS011;54011;50.772;7.730;2022-10-13T06:15:46;23.35;;;11.35;;
67092;SDS011;54011;50.772;7.730;2022-10-13T06:18:13;22.38;;;11.82;;
67092;SDS011;54011;50.772;7.730;2022-10-13T06:20:38;23.63;;;11.65;;
67092;SDS011;54011;50.772;7.730;2022-10-13T06:23:03;19.20;;;11.10;;
67092;SDS011;54011;50.772;7.730;2022-10-13T06:25:30;24.00;;;11.20;;
67092;SDS011;54011;50.772;7.730;2022-10-13T06:27:56;23.35;;;11.85;;
67092;SDS011;54011;50.772;7.730;2022-10-13T06:30:22;22.17;;;11.73;;
67092;SDS011;54011;50.772;7.730;2022-10-13T06:32:47;23.38;;;11.93;;
67092;SDS011;54011;50.772;7.730;2022-10-13T06:35:13;22.17;;;11.70;;
67092;SDS011;54011;50.772;7.730;2022-10-13T06:37:38;24.98;;;11.82;;
67092;SDS011;54011;50.772;7.730;2022-10-13T06:40:08;27.52;;;11.85;;
67092;SDS011;54011;50.772;7.730;2022-10-13T06:42:34;23.10;;;12.10;;
67092;SDS011;54011;50.772;7.730;2022-10-13T06:45:08;27.50;;;11.80;;
67092;SDS011;54011;50.772;7.730;2022-10-13T06:47:38;23.33;;;12.00;;
67092;SDS011;54011;50.772;7.730;2022-10-13T06:50:03;24.63;;;12.02;;
67092;SDS011;54011;50.772;7.730;2022-10-13T06:52:29;22.08;;;11.60;;
67092;SDS011;54011;50.772;7.730;2022-10-13T06:54:56;22.98;;;11.88;;
67092;SDS011;54011;50.772;7.730;2022-10-13T06:57:21;29.02;;;12.80;;
67092;SDS011;54011;50.772;7.730;2022-10-13T06:59:46;22.00;;;11.15;;
67092;SDS011;54011;50.772;7.730;2022-10-13T07:02:13;21.80;;;11.45;;
67092;SDS011;54011;50.772;7.730;2022-10-13T07:04:39;24.27;;;11.55;;
67092;SDS011;54011;50.772;7.730;2022-10-13T07:07:06;25.30;;;12.15;;
67092;SDS011;54011;50.772;7.730;2022-10-13T07:09:33;22.60;;;11.50;;
67092;SDS011;54011;50.772;7.730;2022-10-13T07:12:00;25.98;;;11.77;;
67092;SDS011;54011;50.772;7.730;2022-10-13T07:14:26;22.75;;;12.13;;
67092;SDS011;54011;50.772;7.730;2022-10-13T07:16:51;22.90;;;12.13;;
67092;SDS011;54011;50.772;7.730;2022-10-13T07:19:17;26.63;;;13.25;;
67092;SDS011;54011;50.772;7.730;2022-10-13T07:21:43;26.33;;;12.10;;
67092;SDS011;54011;50.772;7.730;2022-10-13T07:24:10;25.52;;;12.27;;
67092;SDS011;54011;50.772;7.730;2022-10-13T07:26:36;29.95;;;13.27;;
67092;SDS011;54011;50.772;7.730;2022-10-13T07:29:02;25.13;;;12.65;;
67092;SDS011;54011;50.772;7.730;2022-10-13T07:31:27;24.63;;;11.88;;
67092;SDS011;54011;50.772;7.730;2022-10-13T07:33:53;26.20;;;12.35;;
67092;SDS011;54011;50.772;7.730;2022-10-13T07:36:25;23.65;;;11.75;;
67092;SDS011;54011;50.772;7.730;2022-10-13T07:38:54;26.50;;;11.02;;
67092;SDS011;54011;50.772;7.730;2022-10-13T07:41:20;21.13;;;11.88;;
67092;SDS011;54011;50.772;7.730;2022-10-13T07:43:45;26.77;;;12.77;;
67092;SDS011;54011;50.772;7.730;2022-10-13T07:46:11;27.70;;;13.38;;
67092;SDS011;54011;50.772;7.730;2022-10-13T07:48:37;30.48;;;17.05;;
67092;SDS011;54011;50.772;7.730;2022-10-13T07:51:08;28.63;;;15.20;;
67092;SDS011;54011;50.772;7.730;2022-10-13T07:53:35;38.10;;;21.08;;
67092;SDS011;54011;50.772;7.730;2022-10-13T07:56:02;36.22;;;17.02;;
67092;SDS011;54011;50.772;7.730;2022-10-13T07:58:29;23.67;;;13.60;;
67092;SDS011;54011;50.772;7.730;2022-10-13T08:00:58;25.67;;;13.00;;
67092;SDS011;54011;50.772;7.730;2022-10-13T08:03:25;29.80;;;13.73;;
67092;SDS011;54011;50.772;7.730;2022-10-13T08:05:51;28.73;;;13.90;;
67092;SDS011;54011;50.772;7.730;2022-10-13T08:08:18;21.90;;;12.27;;
67092;SDS011;54011;50.772;7.730;2022-10-13T08:10:44;21.23;;;12.10;;
67092;SDS011;54011;50.772;7.730;2022-10-13T08:13:09;30.52;;;14.13;;
67092;SDS011;54011;50.772;7.730;2022-10-13T08:15:38;19.83;;;10.57;;
67092;SDS011;54011;50.772;7.730;2022-10-13T08:18:04;21.90;;;12.02;;
67092;SDS011;54011;50.772;7.730;2022-10-13T08:20:30;21.63;;;11.45;;
67092;SDS011;54011;50.772;7.730;2022-10-13T08:22:55;25.92;;;14.50;;
67092;SDS011;54011;50.772;7.730;2022-10-13T08:25:21;25.10;;;13.93;;
67092;SDS011;54011;50.772;7.730;2022-10-13T08:27:46;23.27;;;12.68;;
67092;SDS011;54011;50.772;7.730;2022-10-13T08:30:12;28.20;;;14.18;;
67092;SDS011;54011;50.772;7.730;2022-10-13T08:32:38;26.40;;;13.13;;
67092;SDS011;54011;50.772;7.730;2022-10-13T08:35:03;22.25;;;11.82;;
67092;SDS011;54011;50.772;7.730;2022-10-13T08:37:29;26.35;;;13.48;;
67092;SDS011;54011;50.772;7.730;2022-10-13T08:39:54;27.08;;;13.38;;
67092;SDS011;54011;50.772;7.730;2022-10-13T08:42:21;26.00;;;13.55;;
67092;SDS011;54011;50.772;7.730;2022-10-13T08:44:53;24.95;;;13.32;;
67092;SDS011;54011;50.772;7.730;2022-10-13T08:48:04;27.55;;;13.20;;
67092;SDS011;54011;50.772;7.730;2022-10-13T08:50:17;26.40;;;12.70;;
67092;SDS011;54011;50.772;7.730;2022-10-13T08:52:50;21.45;;;11.73;;
67092;SDS011;54011;50.772;7.730;2022-10-13T08:58:22;25.55;;;13.85;;
67092;SDS011;54011;50.772;7.730;2022-10-13T09:00:51;23.65;;;13.80;;
67092;SDS011;54011;50.772;7.730;2022-10-13T09:03:28;28.77;;;12.35;;
67092;SDS011;54011;50.772;7.730;2022-10-13T09:08:37;21.00;;;10.48;;
67092;SDS011;54011;50.772;7.730;2022-10-13T09:11:07;16.08;;;9.82;;
67092;SDS011;54011;50.772;7.730;2022-10-13T09:13:34;19.83;;;10.60;;
67092;SDS011;54011;50.772;7.730;2022-10-13T09:16:00;23.73;;;11.93;;
67092;SDS011;54011;50.772;7.730;2022-10-13T09:18:29;24.17;;;12.35;;
67092;SDS011;54011;50.772;7.730;2022-10-13T09:21:09;20.60;;;11.98;;
67092;SDS011;54011;50.772;7.730;2022-10-13T09:23:36;21.38;;;11.50;;
67092;SDS011;54011;50.772;7.730;2022-10-13T09:26:05;19.73;;;11.30;;
67092;SDS011;54011;50.772;7.730;2022-10-13T09:28:33;24.48;;;10.80;;
67092;SDS011;54011;50.772;7.730;2022-10-13T09:31:01;21.73;;;10.25;;
67092;SDS011;54011;50.772;7.730;2022-10-13T09:33:59;17.58;;;9.55;;
67092;SDS011;54011;50.772;7.730;2022-10-13T09:36:26;19.10;;;11.40;;
67092;SDS011;54011;50.772;7.730;2022-10-13T09:39:11;20.27;;;11.68;;
67092;SDS011;54011;50.772;7.730;2022-10-13T09:41:39;21.63;;;10.85;;
67092;SDS011;54011;50.772;7.730;2022-10-13T09:44:10;21.95;;;11.05;;
67092;SDS011;54011;50.772;7.730;2022-10-13T09:46:47;18.73;;;10.30;;
67092;SDS011;54011;50.772;7.730;2022-10-13T09:49:28;21.20;;;10.77;;
67092;SDS011;54011;50.772;7.730;2022-10-13T09:52:14;28.15;;;11.52;;
67092;SDS011;54011;50.772;7.730;2022-10-13T09:54:48;24.88;;;10.48;;
67092;SDS011;54011;50.772;7.730;2022-10-13T10:00:18;23.02;;;10.63;;
67092;SDS011;54011;50.772;7.730;2022-10-13T10:03:03;24.10;;;10.13;;
67092;SDS011;54011;50.772;7.730;2022-10-13T10:05:47;17.15;;;9.18;;
67092;SDS011;54011;50.772;7.730;2022-10-13T10:08:35;17.85;;;7.80;;
67092;SDS011;54011;50.772;7.730;2022-10-13T10:11:11;16.67;;;8.20;;
67092;SDS011;54011;50.772;7.730;2022-10-13T10:13:41;17.63;;;8.60;;
67092;SDS011;54011;50.772;7.730;2022-10-13T10:16:18;14.60;;;7.47;;
67092;SDS011;54011;50.772;7.730;2022-10-13T10:19:00;21.00;;;7.28;;
67092;SDS011;54011;50.772;7.730;2022-10-13T10:24:01;18.85;;;6.78;;
67092;SDS011;54011;50.772;7.730;2022-10-13T10:26:43;14.05;;;6.53;;
67092;SDS011;54011;50.772;7.730;2022-10-13T10:32:04;24.13;;;6.90;;
67092;SDS011;54011;50.772;7.730;2022-10-13T10:34:44;18.50;;;6.90;;
67092;SDS011;54011;50.772;7.730;2022-10-13T10:37:24;18.13;;;6.88;;
67092;SDS011;54011;50.772;7.730;2022-10-13T10:40:02;17.02;;;6.50;;
67092;SDS011;54011;50.772;7.730;2022-10-13T10:42:41;15.73;;;6.28;;
67092;SDS011;54011;50.772;7.730;2022-10-13T10:45:12;13.32;;;5.85;;
67092;SDS011;54011;50.772;7.730;2022-10-13T10:47:42;13.23;;;5.55;;
67092;SDS011;54011;50.772;7.730;2022-10-13T10:50:13;10.18;;;4.95;;
67092;SDS011;54011;50.772;7.730;2022-10-13T11:06:48;16.65;;;5.93;;
67092;SDS011;54011;50.772;7.730;2022-10-13T11:09:13;20.33;;;5.88;;
67092;SDS011;54011;50.772;7.730;2022-10-13T11:11:59;13.75;;;6.18;;
67092;SDS011;54011;50.772;7.730;2022-10-13T11:14:28;11.00;;;5.43;;
67092;SDS011;54011;50.772;7.730;2022-10-13T11:19:35;14.10;;;5.35;;
67092;SDS011;54011;50.772;7.730;2022-10-13T11:45:39;12.48;;;6.15;;
67092;SDS011;54011;50.772;7.730;2022-10-13T11:51:11;15.90;;;6.53;;
67092;SDS011;54011;50.772;7.730;2022-10-13T11:56:48;15.18;;;6.70;;
67092;SDS011;54011;50.772;7.730;2022-10-13T11:59:27;12.25;;;5.95;;
67092;SDS011;54011;50.772;7.730;2022-10-13T12:02:04;15.05;;;6.13;;
67092;SDS011;54011;50.772;7.730;2022-10-13T12:04:36;17.90;;;6.05;;
67092;SDS011;54011;50.772;7.730;2022-10-13T12:07:06;13.65;;;6.03;;
67092;SDS011;54011;50.772;7.730;2022-10-13T12:09:35;14.95;;;6.22;;
67092;SDS011;54011;50.772;7.730;2022-10-13T12:12:13;13.50;;;5.80;;
67092;SDS011;54011;50.772;7.730;2022-10-13T12:14:41;11.10;;;5.45;;
67092;SDS011;54011;50.772;7.730;2022-10-13T12:19:50;14.43;;;5.55;;
67092;SDS011;54011;50.772;7.730;2022-10-13T12:22:19;12.15;;;4.82;;
67092;SDS011;54011;50.772;7.730;2022-10-13T12:24:55;19.75;;;5.97;;
67092;SDS011;54011;50.772;7.730;2022-10-13T12:27:22;17.90;;;6.05;;
67092;SDS011;54011;50.772;7.730;2022-10-13T12:29:48;16.08;;;6.10;;
67092;SDS011;54011;50.772;7.730;2022-10-13T12:32:17;18.17;;;5.45;;
67092;SDS011;54011;50.772;7.730;2022-10-13T12:34:46;12.00;;;5.53;;
67092;SDS011;54011;50.772;7.730;2022-10-13T12:37:27;11.25;;;4.85;;
67092;SDS011;54011;50.772;7.730;2022-10-13T12:39:57;18.55;;;4.82;;
67092;SDS011;54011;50.772;7.730;2022-10-13T12:42:28;15.18;;;5.03;;
67092;SDS011;54011;50.772;7.730;2022-10-13T12:44:56;10.93;;;5.13;;
67092;SDS011;54011;50.772;7.730;2022-10-13T12:47:37;15.90;;;5.68;;
67092;SDS011;54011;50.772;7.730;2022-10-13T12:50:21;14.32;;;5.68;;
67092;SDS011;54011;50.772;7.730;2022-10-13T12:53:16;12.27;;;5.78;;
67092;SDS011;54011;50.772;7.730;2022-10-13T12:58:17;18.80;;;5.55;;
67092;SDS011;54011;50.772;7.730;2022-10-13T13:00:53;15.40;;;5.13;;
67092;SDS011;54011;50.772;7.730;2022-10-13T13:03:25;10.05;;;5.03;;
67092;SDS011;54011;50.772;7.730;2022-10-13T13:06:36;15.63;;;5.37;;
67092;SDS011;54011;50.772;7.730;2022-10-13T13:09:05;11.10;;;4.72;;
67092;SDS011;54011;50.772;7.730;2022-10-13T13:12:36;14.85;;;5.10;;
67092;SDS011;54011;50.772;7.730;2022-10-13T13:14:40;13.20;;;5.15;;
67092;SDS011;54011;50.772;7.730;2022-10-13T13:19:41;11.48;;;5.38;;
67092;SDS011;54011;50.772;7.730;2022-10-13T13:22:08;14.02;;;5.72;;
67092;SDS011;54011;50.772;7.730;2022-10-13T13:24:34;13.25;;;5.55;;
67092;SDS011;54011;50.772;7.730;2022-10-13T13:27:22;13.68;;;5.45;;
67092;SDS011;54011;50.772;7.730;2022-10-13T13:29:55;19.55;;;5.72;;
67092;SDS011;54011;50.772;7.730;2022-10-13T13:32:22;15.25;;;5.28;;
67092;SDS011;54011;50.772;7.730;2022-10-13T13:34:49;15.55;;;5.35;;
67092;SDS011;54011;50.772;7.730;2022-10-13T13:39:52;14.20;;;5.68;;
67092;SDS011;54011;50.772;7.730;2022-10-13T13:42:18;16.27;;;5.35;;
67092;SDS011;54011;50.772;7.730;2022-10-13T13:44:46;11.98;;;4.85;;
67092;SDS011;54011;50.772;7.730;2022-10-13T13:47:15;10.98;;;4.85;;
67092;SDS011;54011;50.772;7.730;2022-10-13T13:49:45;16.67;;;5.13;;
67092;SDS011;54011;50.772;7.730;2022-10-13T13:52:11;14.48;;;5.05;;
67092;SDS011;54011;50.772;7.730;2022-10-13T13:54:37;17.27;;;4.82;;
67092;SDS011;54011;50.772;7.730;2022-10-13T13:57:02;13.73;;;5.00;;
67092;SDS011;54011;50.772;7.730;2022-10-13T13:59:28;11.70;;;5.15;;
67092;SDS011;54011;50.772;7.730;2022-10-13T14:01:54;15.73;;;5.05;;
67092;SDS011;54011;50.772;7.730;2022-10-13T14:04:20;13.20;;;5.32;;
67092;SDS011;54011;50.772;7.730;2022-10-13T14:06:46;10.60;;;5.00;;
67092;SDS011;54011;50.772;7.730;2022-10-13T14:09:11;15.05;;;5.32;;
67092;SDS011;54011;50.772;7.730;2022-10-13T14:11:37;11.30;;;4.43;;
67092;SDS011;54011;50.772;7.730;2022-10-13T14:14:02;12.48;;;5.07;;
67092;SDS011;54011;50.772;7.730;2022-10-13T14:16:28;14.23;;;5.30;;
67092;SDS011;54011;50.772;7.730;2022-10-13T14:18:56;18.27;;;5.53;;
67092;SDS011;54011;50.772;7.730;2022-10-13T14:21:27;13.02;;;6.18;;
67092;SDS011;54011;50.772;7.730;2022-10-13T14:24:08;13.90;;;5.45;;
67092;SDS011;54011;50.772;7.730;2022-10-13T14:26:35;13.95;;;5.40;;
67092;SDS011;54011;50.772;7.730;2022-10-13T14:29:24;17.88;;;6.32;;
67092;SDS011;54011;50.772;7.730;2022-10-13T14:31:50;16.35;;;5.97;;
67092;SDS011;54011;50.772;7.730;2022-10-13T14:34:18;13.13;;;5.88;;
67092;SDS011;54011;50.772;7.730;2022-10-13T14:36:47;14.15;;;6.22;;
67092;SDS011;54011;50.772;7.730;2022-10-13T14:39:17;15.85;;;5.78;;
67092;SDS011;54011;50.772;7.730;2022-10-13T14:41:45;13.75;;;5.90;;
67092;SDS011;54011;50.772;7.730;2022-10-13T14:44:13;13.18;;;5.65;;
67092;SDS011;54011;50.772;7.730;2022-10-13T14:46:45;12.80;;;5.50;;
67092;SDS011;54011;50.772;7.730;2022-10-13T14:49:11;14.50;;;5.85;;
67092;SDS011;54011;50.772;7.730;2022-10-13T14:51:43;17.55;;;6.25;;
67092;SDS011;54011;50.772;7.730;2022-10-13T14:54:11;18.40;;;6.85;;
67092;SDS011;54011;50.772;7.730;2022-10-13T14:56:43;14.52;;;6.90;;
67092;SDS011;54011;50.772;7.730;2022-10-13T14:59:29;15.85;;;6.20;;
67092;SDS011;54011;50.772;7.730;2022-10-13T15:02:01;13.35;;;6.68;;
67092;SDS011;54011;50.772;7.730;2022-10-13T15:04:33;21.85;;;6.35;;
67092;SDS011;54011;50.772;7.730;2022-10-13T15:07:06;14.25;;;6.18;;
67092;SDS011;54011;50.772;7.730;2022-10-13T15:09:34;18.27;;;6.80;;
67092;SDS011;54011;50.772;7.730;2022-10-13T15:12:08;24.40;;;6.80;;
67092;SDS011;54011;50.772;7.730;2022-10-13T15:15:04;14.82;;;7.00;;
67092;SDS011;54011;50.772;7.730;2022-10-13T15:17:33;13.57;;;6.45;;
67092;SDS011;54011;50.772;7.730;2022-10-13T15:20:06;15.15;;;6.85;;
67092;SDS011;54011;50.772;7.730;2022-10-13T15:23:07;23.58;;;6.97;;
67092;SDS011;54011;50.772;7.730;2022-10-13T15:25:33;15.82;;;6.70;;
67092;SDS011;54011;50.772;7.730;2022-10-13T15:28:02;13.95;;;6.55;;
67092;SDS011;54011;50.772;7.730;2022-10-13T15:30:31;20.20;;;7.82;;
67092;SDS011;54011;50.772;7.730;2022-10-13T15:33:04;14.98;;;7.20;;
67092;SDS011;54011;50.772;7.730;2022-10-13T15:35:29;16.35;;;6.95;;
67092;SDS011;54011;50.772;7.730;2022-10-13T15:37:56;17.30;;;7.00;;
67092;SDS011;54011;50.772;7.730;2022-10-13T15:40:22;14.23;;;6.72;;
67092;SDS011;54011;50.772;7.730;2022-10-13T15:42:48;15.88;;;6.80;;
67092;SDS011;54011;50.772;7.730;2022-10-13T15:45:13;14.50;;;7.30;;
67092;SDS011;54011;50.772;7.730;2022-10-13T15:47:39;19.27;;;7.03;;
67092;SDS011;54011;50.772;7.730;2022-10-13T15:50:05;19.45;;;8.10;;
67092;SDS011;54011;50.772;7.730;2022-10-13T15:52:35;15.73;;;7.60;;
67092;SDS011;54011;50.772;7.730;2022-10-13T15:55:02;16.95;;;7.75;;
67092;SDS011;54011;50.772;7.730;2022-10-13T15:57:29;17.33;;;8.48;;
67092;SDS011;54011;50.772;7.730;2022-10-13T15:59:55;21.80;;;8.32;;
67092;SDS011;54011;50.772;7.730;2022-10-13T16:02:21;21.13;;;8.57;;
67092;SDS011;54011;50.772;7.730;2022-10-13T16:04:48;18.17;;;9.30;;
67092;SDS011;54011;50.772;7.730;2022-10-13T16:07:19;22.85;;;9.65;;
67092;SDS011;54011;50.772;7.730;2022-10-13T16:13:11;20.90;;;8.98;;
67092;SDS011;54011;50.772;7.730;2022-10-13T16:34:17;19.13;;;8.45;;
67092;SDS011;54011;50.772;7.730;2022-10-13T16:36:42;17.58;;;9.02;;
67092;SDS011;54011;50.772;7.730;2022-10-13T16:39:07;19.38;;;8.85;;
67092;SDS011;54011;50.772;7.730;2022-10-13T16:41:37;16.90;;;8.55;;
67092;SDS011;54011;50.772;7.730;2022-10-13T16:44:02;17.85;;;8.90;;
67092;SDS011;54011;50.772;7.730;2022-10-13T16:46:28;19.27;;;9.05;;